createdAt,value
2022-09-29T00:04:39.083Z,96326.16
2022-09-29T00:09:40.367Z,96330.47
2022-09-29T00:14:45.644Z,96329.66
2022-09-29T00:19:48.973Z,96337.06
2022-09-29T00:24:50.289Z,96343.19
2022-09-29T00:29:51.692Z,96346.91
2022-09-29T00:34:52.982Z,96344.88
2022-09-29T00:39:54.254Z,96340.78
2022-09-29T00:45:02.493Z,96340.41
2022-09-29T00:50:25.934Z,96346.78
2022-09-29T00:55:39.413Z,96344.53
2022-09-29T01:00:41.298Z,96339.22
2022-09-29T01:05:45.409Z,96333.88
2022-09-29T01:10:47.601Z,96335.13
2022-09-29T01:15:48.938Z,96325.69
2022-09-29T01:20:58.897Z,96335.78
2022-09-29T01:26:09.597Z,96343.59
2022-09-29T01:31:14.861Z,96350.81
2022-09-29T01:36:34.443Z,96348.78
2022-09-29T01:41:49.926Z,96348.78
2022-09-29T01:47:01.804Z,96351.25
2022-09-29T01:52:07.623Z,96359.63
2022-09-29T01:57:12.091Z,96350.59
2022-09-29T02:02:17.144Z,96351.41
2022-09-29T02:07:38.801Z,96361.84
2022-09-29T02:12:42.565Z,96364.28
2022-09-29T02:17:45.746Z,96366.16
2022-09-29T02:22:47.036Z,96372.28
2022-09-29T02:27:50.245Z,96363.88
2022-09-29T02:32:51.531Z,96366.72
2022-09-29T02:38:08.033Z,96371.41
2022-09-29T02:43:35.221Z,96372.63
2022-09-29T02:48:56.438Z,96380.56
2022-09-29T02:54:03.445Z,96374.38
2022-09-29T02:59:08.495Z,96380.47
2022-09-29T03:04:09.820Z,96374.28
2022-09-29T03:09:11.265Z,96359.47
2022-09-29T03:14:12.944Z,96368.69
2022-09-29T03:19:14.320Z,96375.22
2022-09-29T03:24:15.641Z,96378.28
2022-09-29T03:29:16.981Z,96369.25
2022-09-29T03:34:18.303Z,96384.41
2022-09-29T03:39:19.710Z,96374.19
2022-09-29T03:44:21.070Z,96389.00
2022-09-29T03:49:22.339Z,96387.81
2022-09-29T03:54:26.253Z,96395.81
2022-09-29T03:59:27.568Z,96389.41
2022-09-29T04:04:28.843Z,96393.28
2022-09-29T04:09:30.944Z,96390.19
2022-09-29T04:14:32.231Z,96390.59
2022-09-29T04:19:33.605Z,96388.06
2022-09-29T04:24:34.890Z,96396.44
2022-09-29T04:29:36.203Z,96402.41
2022-09-29T04:34:37.761Z,96398.25
2022-09-29T04:39:39.089Z,96397.81
2022-09-29T04:44:40.401Z,96403.53
2022-09-29T04:49:41.688Z,96404.38
2022-09-29T04:54:42.957Z,96410.28
2022-09-29T04:59:44.316Z,96418.91
2022-09-29T05:04:47.431Z,96410.47
2022-09-29T05:09:48.706Z,96410.63
2022-09-29T05:14:49.988Z,96417.38
2022-09-29T05:19:51.268Z,96416.34
2022-09-29T05:24:52.648Z,96416.13
2022-09-29T05:29:53.949Z,96419.41
2022-09-29T05:34:55.254Z,96425.34
2022-09-29T05:39:56.605Z,96430.88
2022-09-29T05:44:57.883Z,96432.13
2022-09-29T05:49:59.237Z,96430.06
2022-09-29T05:55:00.506Z,96426.53
2022-09-29T06:00:02.241Z,96428.53
2022-09-29T06:05:12.699Z,96423.56
2022-09-29T06:10:13.971Z,96434.84
2022-09-29T06:15:15.376Z,96437.75
2022-09-29T06:20:17.093Z,96442.06
2022-09-29T06:25:18.389Z,96450.44
2022-09-29T06:30:19.738Z,96439.31
2022-09-29T06:35:40.123Z,96444.59
2022-09-29T06:40:41.488Z,96440.03
2022-09-29T06:45:42.886Z,96442.78
2022-09-29T06:50:44.184Z,96441.91
2022-09-29T06:55:52.165Z,96451.72
2022-09-29T07:00:54.054Z,96448.41
2022-09-29T07:06:18.778Z,96442.97
2022-09-29T07:11:16.895Z,96448.00
2022-09-29T07:16:18.301Z,96451.72
2022-09-29T07:21:19.739Z,96452.88
2022-09-29T07:26:22.180Z,96448.31
2022-09-29T07:31:23.915Z,96457.44
2022-09-29T07:36:25.442Z,96462.25
2022-09-29T07:41:27.997Z,96464.00
2022-09-29T07:46:29.355Z,96475.06
2022-09-29T07:51:30.764Z,96473.25
2022-09-29T07:56:32.905Z,96475.78
2022-09-29T08:01:34.986Z,96467.88
2022-09-29T08:06:36.993Z,96476.16
2022-09-29T08:11:39.304Z,96479.28
2022-09-29T08:16:40.810Z,96481.88
2022-09-29T08:21:42.244Z,96492.22
2022-09-29T08:26:44.465Z,96492.50
2022-09-29T08:31:47.214Z,96494.66
2022-09-29T08:36:48.619Z,96503.53
2022-09-29T08:41:52.533Z,96501.28
2022-09-29T08:47:09.223Z,96499.91
2022-09-29T08:52:23.404Z,96517.97
2022-09-29T08:57:24.797Z,96524.50
2022-09-29T09:02:56.724Z,96519.00
2022-09-29T09:08:19.779Z,96528.94
2022-09-29T09:13:31.141Z,96529.53
2022-09-29T09:18:42.261Z,96529.84
2022-09-29T09:23:56.811Z,96527.53
2022-09-29T09:29:07.165Z,96520.78
2022-09-29T09:34:19.858Z,96521.44
2022-09-29T09:39:31.583Z,96534.50
2022-09-29T09:44:35.562Z,96533.22
2022-09-29T09:49:39.383Z,96545.44
2022-09-29T09:54:45.885Z,96549.53
2022-09-29T09:59:57.402Z,96542.53
2022-09-29T10:04:59.013Z,96543.81
2022-09-29T10:10:03.257Z,96546.38
2022-09-29T10:15:05.967Z,96538.78
2022-09-29T10:20:07.871Z,96547.13
2022-09-29T10:25:12.216Z,96546.78
2022-09-29T10:30:22.363Z,96551.56
2022-09-29T10:35:28.719Z,96559.84
2022-09-29T10:40:30.011Z,96555.69
2022-09-29T10:45:31.319Z,96551.13
2022-09-29T10:50:37.403Z,96560.19
2022-09-29T10:55:47.906Z,96563.88
2022-09-29T11:00:49.289Z,96565.59
2022-09-29T11:06:11.805Z,96569.50
2022-09-29T11:11:22.404Z,96569.19
2022-09-29T11:16:23.778Z,96566.81
2022-09-29T11:21:25.061Z,96565.81
2022-09-29T11:26:33.708Z,96571.59
2022-09-29T11:31:53.650Z,96565.66
2022-09-29T11:37:10.499Z,96575.94
2022-09-29T11:42:28.449Z,96576.47
2022-09-29T11:47:40.369Z,96579.91
2022-09-29T11:52:53.858Z,96571.28
2022-09-29T11:58:01.188Z,96580.25
2022-09-29T12:03:21.597Z,96584.81
2022-09-29T12:08:23.128Z,96576.56
2022-09-29T12:13:27.311Z,96579.66
2022-09-29T12:18:32.710Z,96587.81
2022-09-29T12:23:37.732Z,96594.50
2022-09-29T12:28:48.699Z,96587.72
2022-09-29T12:33:52.310Z,96582.66
2022-09-29T12:38:55.901Z,96589.53
2022-09-29T12:44:15.054Z,96585.75
2022-09-29T12:49:25.563Z,96596.44
2022-09-29T12:54:36.929Z,96595.31
2022-09-29T12:59:58.734Z,96602.09
2022-09-29T13:05:12.728Z,96598.63
2022-09-29T13:10:40.449Z,96604.19
2022-09-29T13:15:57.969Z,96604.81
2022-09-29T13:21:02.767Z,96605.94
2022-09-29T13:26:23.961Z,96605.94
2022-09-29T13:31:32.585Z,96612.97
2022-09-29T13:36:39.779Z,96609.25
2022-09-29T13:41:41.058Z,96607.59
2022-09-29T13:46:43.084Z,96605.47
2022-09-29T13:51:44.621Z,96611.16
2022-09-29T13:57:06.758Z,96604.44
2022-09-29T14:02:26.975Z,96602.41
2022-09-29T14:07:40.553Z,96605.94
2022-09-29T14:12:41.977Z,96604.16
2022-09-29T14:17:45.230Z,96595.06
2022-09-29T14:22:51.368Z,96599.59
2022-09-29T14:27:57.781Z,96598.19
2022-09-29T14:33:01.047Z,96607.88
2022-09-29T14:38:14.184Z,96610.97
2022-09-29T14:43:16.270Z,96627.56
2022-09-29T14:48:49.149Z,96629.69
2022-09-29T14:53:59.991Z,96645.28
2022-09-29T14:59:07.503Z,96639.59
2022-09-29T15:04:12.877Z,96633.31
2022-09-29T15:09:17.020Z,96640.91
2022-09-29T15:14:21.433Z,96638.94
2022-09-29T15:19:33.410Z,96647.69
2022-09-29T15:24:34.651Z,96664.34
2022-09-29T15:29:36.060Z,96659.53
2022-09-29T15:34:39.305Z,96665.19
2022-09-29T15:39:42.423Z,96685.25
2022-09-29T15:44:47.606Z,96686.72
2022-09-29T15:49:49.442Z,96684.44
2022-09-29T15:54:55.155Z,96689.66
2022-09-29T15:59:56.513Z,96702.94
2022-09-29T16:05:00.123Z,96713.28
2022-09-29T16:10:09.514Z,96723.06
2022-09-29T16:15:16.814Z,96729.09
2022-09-29T16:20:23.721Z,96734.59
2022-09-29T16:25:26.967Z,96743.63
2022-09-29T16:30:29.962Z,96754.31
2022-09-29T16:35:41.382Z,96759.00
2022-09-29T16:40:42.794Z,96759.97
2022-09-29T16:45:47.587Z,96760.91
2022-09-29T16:50:49.973Z,96768.88
2022-09-29T16:56:09.802Z,96770.88
2022-09-29T17:01:11.730Z,96777.41
2022-09-29T17:06:13.124Z,96783.25
2022-09-29T17:11:14.424Z,96786.41
2022-09-29T17:16:21.189Z,96802.78
2022-09-29T17:21:22.839Z,96805.94
2022-09-29T17:26:56.226Z,96811.53
2022-09-29T17:31:57.865Z,96807.44
2022-09-29T17:37:02.015Z,96802.53
2022-09-29T17:42:03.478Z,96814.25
2022-09-29T17:47:17.432Z,96821.03
2022-09-29T17:52:26.566Z,96821.34
2022-09-29T17:57:28.461Z,96816.66
2022-09-29T18:02:29.849Z,96809.53
2022-09-29T18:07:31.229Z,96812.47
2022-09-29T18:12:32.576Z,96811.88
2022-09-29T18:17:33.886Z,96804.88
2022-09-29T18:22:36.119Z,96812.34
2022-09-29T18:27:37.553Z,96817.72
2022-09-29T18:32:39.144Z,96816.09
2022-09-29T18:37:40.591Z,96807.44
2022-09-29T18:42:43.059Z,96816.78
2022-09-29T18:47:44.668Z,96823.91
2022-09-29T18:52:47.581Z,96822.94
2022-09-29T18:57:48.931Z,96826.91
2022-09-29T19:02:50.919Z,96824.94
2022-09-29T19:07:53.560Z,96829.69
2022-09-29T19:12:58.779Z,96843.34
2022-09-29T19:18:00.154Z,96845.66
2022-09-29T19:23:05.559Z,96849.66
2022-09-29T19:28:07.143Z,96856.03
2022-09-29T19:33:11.029Z,96862.47
2022-09-29T19:38:12.376Z,96874.25
2022-09-29T19:43:14.337Z,96878.22
2022-09-29T19:48:20.168Z,96878.66
2022-09-29T19:53:21.834Z,96874.31
2022-09-29T19:58:23.631Z,96875.63
2022-09-29T20:03:25.552Z,96885.75
2022-09-29T20:08:27.357Z,96886.19
2022-09-29T20:13:29.824Z,96900.84
2022-09-29T20:18:31.692Z,96899.88
2022-09-29T20:23:33.054Z,96907.22
2022-09-29T20:28:35.390Z,96903.66
2022-09-29T20:33:36.847Z,96911.97
2022-09-29T20:38:43.298Z,96914.38
2022-09-29T20:43:48.937Z,96919.44
2022-09-29T20:48:54.930Z,96920.78
2022-09-29T20:54:00.386Z,96936.47
2022-09-29T20:59:01.920Z,96933.44
2022-09-29T21:04:08.067Z,96936.31
2022-09-29T21:09:11.210Z,96943.53
2022-09-29T21:14:16.637Z,96956.94
2022-09-29T21:19:19.134Z,96958.00
2022-09-29T21:24:20.785Z,96961.69
2022-09-29T21:29:22.052Z,96981.94
2022-09-29T21:34:23.552Z,96975.00
2022-09-29T21:39:24.918Z,96974.88
2022-09-29T21:44:26.181Z,96973.72
2022-09-29T21:49:27.545Z,96974.38
2022-09-29T21:54:30.126Z,96968.59
2022-09-29T21:59:31.440Z,96974.34
2022-09-29T22:04:32.732Z,96979.47
2022-09-29T22:09:34.035Z,96989.16
2022-09-29T22:14:35.633Z,96986.03
2022-09-29T22:19:37.230Z,96985.22
2022-09-29T22:24:38.777Z,96987.06
2022-09-29T22:29:40.061Z,96984.00
2022-09-29T22:34:41.325Z,96987.50
2022-09-29T22:39:42.749Z,97003.13
2022-09-29T22:44:44.023Z,96995.72
2022-09-29T22:49:45.409Z,96999.44
2022-09-29T22:54:47.507Z,97001.28
2022-09-29T22:59:48.989Z,97003.13
2022-09-29T23:04:50.266Z,97001.50
2022-09-29T23:09:51.585Z,97007.47
2022-09-29T23:14:53.163Z,97017.81
2022-09-29T23:19:54.503Z,97013.47
2022-09-29T23:24:55.790Z,97014.75
2022-09-29T23:29:57.104Z,97005.66
2022-09-29T23:34:58.395Z,97008.91
2022-09-29T23:39:59.705Z,97007.66
2022-09-29T23:45:01.316Z,97016.09
2022-09-29T23:50:03.178Z,97001.69
2022-09-29T23:55:04.602Z,97013.59
